Time;durP1;ratioP1;P1;durP2;ratioP2;P2;SDS_P1;SDS_P2;PMS_P1;PMS_P2;Temp;Humidity;BMP_temperature;BMP_pressure;BME280_temperature;BME280_humidity;BME280_pressure;Samples;Min_cycle;Max_cycle;Signal;HPM_P1;HPM_P2
2022/11/08 00:03:46;;;;;;;;;;;6.90;99.90;;;;;;5023872;28;20298;-75
2022/11/08 00:14:24;;;;;;;;;;;6.90;99.90;;;;;;5041183;28;20004;-75
2022/11/08 00:16:50;;;;;;;;;;;6.80;99.90;;;;;;5036442;28;20019;-75
2022/11/08 00:19:15;;;;;;;;;;;7.00;99.90;;;;;;5034744;28;19959;-75
2022/11/08 00:21:41;;;;;;;;;;;7.10;99.90;;;;;;5036131;28;19912;-75
2022/11/08 00:24:06;;;;;;;;;;;7.20;99.90;;;;;;5030868;28;20371;-75
2022/11/08 00:26:32;;;;;;;;;;;7.10;99.90;;;;;;5041031;28;19909;-75
2022/11/08 00:28:57;;;;;;;;;;;6.90;99.90;;;;;;5036844;28;19979;-75
2022/11/08 00:31:23;;;;;;;;;;;6.90;99.90;;;;;;5040538;28;19917;-75
2022/11/08 00:33:48;;;;;;;;;;;6.90;99.90;;;;;;5033823;28;20318;-75
2022/11/08 00:36:14;;;;;;;;;;;6.90;99.90;;;;;;5043393;28;20366;-75
2022/11/08 00:38:40;;;;;;;;;;;6.80;99.90;;;;;;5047419;28;19912;-75
2022/11/08 00:41:05;;;;;;;;;;;6.80;99.90;;;;;;5047824;28;19909;-75
2022/11/08 00:43:31;;;;;;;;;;;6.80;99.90;;;;;;5037697;28;19928;-75
2022/11/08 00:45:56;;;;;;;;;;;6.60;99.90;;;;;;5045552;28;19954;-75
2022/11/08 00:48:22;;;;;;;;;;;6.60;99.90;;;;;;5043914;28;20294;-75
2022/11/08 00:50:47;;;;;;;;;;;6.70;99.90;;;;;;5035025;28;19909;-75
2022/11/08 00:53:13;;;;;;;;;;;6.70;99.90;;;;;;5045399;28;19916;-75
2022/11/08 00:55:38;;;;;;;;;;;6.70;99.90;;;;;;5044747;28;19908;-75
2022/11/08 00:58:04;;;;;;;;;;;6.60;99.90;;;;;;5039299;28;19974;-75
2022/11/08 01:00:29;;;;;;;;;;;6.70;99.90;;;;;;5039913;28;20437;-75
2022/11/08 01:05:39;;;;;;;;;;;6.50;99.90;;;;;;5047604;28;19967;-75
2022/11/08 01:08:05;;;;;;;;;;;6.60;99.90;;;;;;5036274;28;20306;-75
2022/11/08 01:10:31;;;;;;;;;;;6.50;99.90;;;;;;5041211;28;20411;-75
2022/11/08 01:12:56;;;;;;;;;;;6.60;99.90;;;;;;5048219;28;19953;-75
2022/11/08 01:15:22;;;;;;;;;;;6.60;99.90;;;;;;5043836;28;20259;-75
2022/11/08 01:17:47;;;;;;;;;;;6.60;99.90;;;;;;5044473;28;20370;-75
2022/11/08 01:20:13;;;;;;;;;;;6.60;99.90;;;;;;5044178;28;19951;-75
2022/11/08 01:22:38;;;;;;;;;;;6.60;99.90;;;;;;5047479;28;19959;-74
2022/11/08 01:25:04;;;;;;;;;;;6.60;99.90;;;;;;5044367;28;19917;-75
2022/11/08 01:27:29;;;;;;;;;;;6.60;99.90;;;;;;5039999;28;19909;-75
2022/11/08 01:29:55;;;;;;;;;;;6.40;99.90;;;;;;5044220;28;20318;-75
2022/11/08 01:32:20;;;;;;;;;;;6.40;99.90;;;;;;5039419;28;19915;-75
2022/11/08 01:34:46;;;;;;;;;;;6.40;99.90;;;;;;5043228;28;19916;-75
2022/11/08 01:37:11;;;;;;;;;;;6.30;99.90;;;;;;5049801;28;20260;-75
2022/11/08 01:39:37;;;;;;;;;;;6.20;99.90;;;;;;5043988;28;20370;-75
2022/11/08 01:42:02;;;;;;;;;;;6.20;99.90;;;;;;5042938;28;19908;-75
2022/11/08 01:44:28;;;;;;;;;;;6.00;99.90;;;;;;5044056;28;19957;-75
2022/11/08 01:46:53;;;;;;;;;;;6.20;99.90;;;;;;5044520;28;19916;-74
2022/11/08 01:49:28;;;;;;;;;;;6.40;99.90;;;;;;5041855;28;20414;-75
2022/11/08 01:52:03;;;;;;;;;;;6.40;99.90;;;;;;5043003;28;19920;-75
2022/11/08 01:54:28;;;;;;;;;;;6.50;99.90;;;;;;5035073;28;19909;-75
2022/11/08 01:56:54;;;;;;;;;;;6.60;99.90;;;;;;5039642;28;19916;-74
2022/11/08 01:59:20;;;;;;;;;;;6.50;99.90;;;;;;5048991;28;19909;-74
2022/11/08 02:01:46;;;;;;;;;;;6.80;99.90;;;;;;5043564;28;20253;-75
2022/11/08 02:04:12;;;;;;;;;;;6.70;99.90;;;;;;5038613;28;19979;-75
2022/11/08 02:06:38;;;;;;;;;;;6.60;99.90;;;;;;5043902;28;19909;-75
2022/11/08 02:09:06;;;;;;;;;;;6.50;99.90;;;;;;5036467;28;20643;-75
2022/11/08 02:11:32;;;;;;;;;;;6.40;99.90;;;;;;5045411;28;19909;-75
2022/11/08 02:13:57;;;;;;;;;;;6.30;99.90;;;;;;5044771;28;19999;-75
2022/11/08 02:16:23;;;;;;;;;;;6.30;99.90;;;;;;5051964;28;20016;-75
2022/11/08 02:18:49;;;;;;;;;;;6.20;99.90;;;;;;5042097;28;20268;-75
2022/11/08 02:21:17;;;;;;;;;;;6.20;99.90;;;;;;5034660;28;19913;-75
2022/11/08 02:23:43;;;;;;;;;;;6.30;99.90;;;;;;5038276;28;20363;-74
2022/11/08 02:26:08;;;;;;;;;;;6.50;99.90;;;;;;5045545;28;19916;-75
2022/11/08 02:28:38;;;;;;;;;;;6.40;99.90;;;;;;5048415;28;19908;-75
2022/11/08 02:31:06;;;;;;;;;;;6.20;99.90;;;;;;5043037;28;19905;-75
2022/11/08 02:33:32;;;;;;;;;;;6.10;99.90;;;;;;5036589;28;19909;-75
2022/11/08 02:35:57;;;;;;;;;;;6.20;99.90;;;;;;5037525;28;19931;-75
2022/11/08 02:38:24;;;;;;;;;;;6.20;99.90;;;;;;5034200;28;19909;-75
2022/11/08 02:40:51;;;;;;;;;;;6.20;99.90;;;;;;5045213;28;20290;-75
2022/11/08 02:43:17;;;;;;;;;;;6.20;99.90;;;;;;5045048;28;19913;-75
2022/11/08 02:45:42;;;;;;;;;;;6.10;99.90;;;;;;5040135;28;20362;-75
2022/11/08 02:48:08;;;;;;;;;;;6.10;99.90;;;;;;5046232;28;19995;-75
2022/11/08 02:50:33;;;;;;;;;;;6.10;99.90;;;;;;5043775;28;19963;-75
2022/11/08 02:52:59;;;;;;;;;;;6.10;99.90;;;;;;5041472;28;19905;-75
2022/11/08 02:55:24;;;;;;;;;;;6.10;99.90;;;;;;5045247;28;19915;-75
2022/11/08 02:57:50;;;;;;;;;;;6.30;99.90;;;;;;5038289;28;20278;-75
2022/11/08 03:00:15;;;;;;;;;;;6.40;99.90;;;;;;5041577;28;19905;-75
2022/11/08 03:02:41;;;;;;;;;;;6.50;99.90;;;;;;5041540;28;19909;-75
2022/11/08 03:05:07;;;;;;;;;;;6.20;99.90;;;;;;5037146;28;20290;-75
2022/11/08 03:07:32;;;;;;;;;;;6.30;99.90;;;;;;5043095;28;20527;-75
2022/11/08 03:09:58;;;;;;;;;;;6.00;99.90;;;;;;5039188;28;20378;-75
2022/11/08 03:12:23;;;;;;;;;;;6.00;99.90;;;;;;5039275;28;20329;-75
2022/11/08 03:14:49;;;;;;;;;;;6.20;99.90;;;;;;5038419;28;19908;-74
2022/11/08 03:17:14;;;;;;;;;;;6.30;99.90;;;;;;5040805;28;20305;-74
2022/11/08 03:19:40;;;;;;;;;;;6.30;99.90;;;;;;5036651;28;20422;-75
2022/11/08 03:22:05;;;;;;;;;;;6.20;99.90;;;;;;5045695;28;19950;-75
2022/11/08 03:24:32;;;;;;;;;;;6.50;99.90;;;;;;5041368;28;20766;-75
2022/11/08 03:26:58;;;;;;;;;;;6.30;99.90;;;;;;5038277;28;19909;-75
2022/11/08 03:29:24;;;;;;;;;;;6.20;99.90;;;;;;5049539;28;19909;-75
2022/11/08 03:31:49;;;;;;;;;;;6.20;99.90;;;;;;5036414;28;20039;-75
2022/11/08 03:34:15;;;;;;;;;;;6.10;99.90;;;;;;5035251;28;20266;-75
2022/11/08 03:36:40;;;;;;;;;;;5.90;99.90;;;;;;5019126;28;20058;-74
2022/11/08 03:39:06;;;;;;;;;;;6.00;99.90;;;;;;5023978;28;19912;-75
2022/11/08 03:41:32;;;;;;;;;;;5.90;99.90;;;;;;5034321;28;19909;-75
2022/11/08 03:43:57;;;;;;;;;;;5.80;99.90;;;;;;5042613;28;20267;-75
2022/11/08 03:46:23;;;;;;;;;;;5.90;99.90;;;;;;5047727;28;19921;-75
2022/11/08 03:48:48;;;;;;;;;;;6.00;99.90;;;;;;5059746;28;19908;-75
2022/11/08 03:51:14;;;;;;;;;;;6.10;99.90;;;;;;5036089;28;20385;-74
2022/11/08 03:53:39;;;;;;;;;;;6.10;99.90;;;;;;5038456;28;20366;-75
2022/11/08 03:56:05;;;;;;;;;;;6.00;99.90;;;;;;5038904;28;19909;-75
2022/11/08 03:58:30;;;;;;;;;;;5.80;99.90;;;;;;5044428;28;19915;-75
2022/11/08 04:00:57;;;;;;;;;;;5.60;99.90;;;;;;5039545;28;20664;-74
2022/11/08 04:03:22;;;;;;;;;;;5.60;99.90;;;;;;5034631;28;19913;-73
2022/11/08 04:05:48;;;;;;;;;;;5.70;99.90;;;;;;5037689;28;19970;-74
2022/11/08 04:08:13;;;;;;;;;;;5.80;99.90;;;;;;5033310;28;19952;-73
2022/11/08 04:10:39;;;;;;;;;;;5.70;99.90;;;;;;5030965;28;19916;-73
2022/11/08 04:15:53;;;;;;;;;;;5.70;99.90;;;;;;5038630;28;19928;-73
2022/11/08 04:21:18;;;;;;;;;;;5.70;99.90;;;;;;5032895;28;20461;-73
2022/11/08 04:23:44;;;;;;;;;;;5.90;99.90;;;;;;5029820;28;19928;-73
2022/11/08 04:26:10;;;;;;;;;;;5.70;99.90;;;;;;5034114;28;19909;-73
2022/11/08 04:28:37;;;;;;;;;;;5.80;99.90;;;;;;5039983;28;19908;-73
2022/11/08 04:31:04;;;;;;;;;;;5.70;99.90;;;;;;5038257;28;19944;-74
2022/11/08 04:33:30;;;;;;;;;;;5.70;99.90;;;;;;5034215;28;19976;-74
2022/11/08 04:36:00;;;;;;;;;;;5.60;99.90;;;;;;5038113;28;19988;-73
2022/11/08 04:38:26;;;;;;;;;;;5.60;99.90;;;;;;5029501;28;19920;-74
2022/11/08 04:40:51;;;;;;;;;;;6.00;99.90;;;;;;5036426;28;19917;-73
2022/11/08 04:43:17;;;;;;;;;;;5.80;99.90;;;;;;5037796;28;19936;-75
2022/11/08 04:45:42;;;;;;;;;;;5.70;99.90;;;;;;5032385;28;19945;-75
2022/11/08 04:48:08;;;;;;;;;;;5.50;99.90;;;;;;5041387;28;20236;-75
2022/11/08 04:50:33;;;;;;;;;;;5.50;99.90;;;;;;5032369;28;20003;-75
2022/11/08 04:52:59;;;;;;;;;;;5.50;99.90;;;;;;5025513;28;19913;-75
2022/11/08 04:55:24;;;;;;;;;;;5.50;99.90;;;;;;5039406;28;19915;-75
2022/11/08 04:57:50;;;;;;;;;;;5.50;99.90;;;;;;5038151;28;20392;-75
2022/11/08 05:00:16;;;;;;;;;;;5.60;99.90;;;;;;5027728;28;19915;-75
2022/11/08 05:02:41;;;;;;;;;;;5.50;99.90;;;;;;5026855;28;19913;-75
2022/11/08 05:05:07;;;;;;;;;;;5.50;99.90;;;;;;5030696;28;19924;-75
2022/11/08 05:07:33;;;;;;;;;;;5.60;99.90;;;;;;5030715;28;19920;-75
2022/11/08 05:09:58;;;;;;;;;;;5.50;99.90;;;;;;5030739;28;20494;-75
2022/11/08 05:12:24;;;;;;;;;;;5.50;99.90;;;;;;5029281;28;20416;-75
2022/11/08 05:14:49;;;;;;;;;;;5.30;99.90;;;;;;5026895;28;20000;-75
2022/11/08 05:17:15;;;;;;;;;;;5.30;99.90;;;;;;5010945;28;20341;-75
2022/11/08 05:25:16;;;;;;;;;;;5.20;99.90;;;;;;5011553;28;19932;-75
2022/11/08 05:27:42;;;;;;;;;;;5.30;99.90;;;;;;5007990;28;20366;-75
2022/11/08 05:30:07;;;;;;;;;;;5.30;99.90;;;;;;5009506;28;19913;-74
2022/11/08 05:32:33;;;;;;;;;;;5.40;99.90;;;;;;5010974;28;19918;-75
2022/11/08 05:34:58;;;;;;;;;;;5.50;99.90;;;;;;5005327;28;20367;-75
2022/11/08 05:37:24;;;;;;;;;;;5.10;99.90;;;;;;5014347;28;19954;-75
2022/11/08 05:39:49;;;;;;;;;;;5.00;99.90;;;;;;5008941;28;20414;-75
2022/11/08 05:42:15;;;;;;;;;;;4.90;99.90;;;;;;5012322;28;20384;-75
2022/11/08 05:44:40;;;;;;;;;;;4.90;99.90;;;;;;5014882;28;19917;-75
2022/11/08 05:47:06;;;;;;;;;;;4.90;99.90;;;;;;5009724;28;20278;-75
2022/11/08 05:49:31;;;;;;;;;;;4.90;99.90;;;;;;5009549;28;19988;-75
2022/11/08 05:51:57;;;;;;;;;;;4.90;99.90;;;;;;5009579;28;19913;-75
2022/11/08 05:54:22;;;;;;;;;;;5.10;99.90;;;;;;5010638;28;19916;-75
2022/11/08 05:56:48;;;;;;;;;;;5.10;99.90;;;;;;5016525;28;19909;-75
2022/11/08 05:59:14;;;;;;;;;;;5.20;99.90;;;;;;5016669;28;20383;-75
2022/11/08 06:01:39;;;;;;;;;;;5.20;99.90;;;;;;5014810;28;19910;-75
2022/11/08 06:04:05;;;;;;;;;;;5.30;99.90;;;;;;5014476;28;19983;-75
2022/11/08 06:06:30;;;;;;;;;;;5.40;99.90;;;;;;5024378;28;19909;-75
2022/11/08 06:08:56;;;;;;;;;;;5.80;99.90;;;;;;5012534;28;19956;-75
2022/11/08 06:11:23;;;;;;;;;;;5.60;99.90;;;;;;5013348;28;20268;-75
2022/11/08 06:13:49;;;;;;;;;;;5.50;99.90;;;;;;5014412;28;19963;-75
2022/11/08 06:16:15;;;;;;;;;;;5.50;99.90;;;;;;5011420;28;19921;-75
2022/11/08 06:18:41;;;;;;;;;;;5.40;99.90;;;;;;5037206;28;19957;-75
2022/11/08 06:21:09;;;;;;;;;;;5.40;99.90;;;;;;5036731;28;19917;-73
2022/11/08 06:23:35;;;;;;;;;;;5.50;99.90;;;;;;5029788;28;19984;-75
2022/11/08 06:26:00;;;;;;;;;;;5.50;99.90;;;;;;5034510;28;20003;-74
2022/11/08 06:28:26;;;;;;;;;;;5.50;99.90;;;;;;5031034;28;19928;-75
2022/11/08 06:30:52;;;;;;;;;;;5.40;99.90;;;;;;5028513;28;20444;-74
2022/11/08 06:33:18;;;;;;;;;;;5.40;99.90;;;;;;5024704;28;19912;-75
2022/11/08 06:35:44;;;;;;;;;;;5.50;99.90;;;;;;5031399;28;20559;-74
2022/11/08 06:38:10;;;;;;;;;;;5.40;99.90;;;;;;5033336;28;20004;-74
2022/11/08 06:40:36;;;;;;;;;;;5.40;99.90;;;;;;5037425;28;20871;-74
2022/11/08 06:43:01;;;;;;;;;;;5.40;99.90;;;;;;5028811;28;19999;-74
2022/11/08 06:45:27;;;;;;;;;;;5.10;99.90;;;;;;5031701;28;20024;-74
2022/11/08 06:47:56;;;;;;;;;;;5.10;99.90;;;;;;5038925;28;20263;-75
2022/11/08 06:50:22;;;;;;;;;;;5.30;99.90;;;;;;5031273;28;19909;-76
2022/11/08 06:52:54;;;;;;;;;;;5.30;99.90;;;;;;5030677;28;19912;-75
2022/11/08 06:55:19;;;;;;;;;;;5.30;99.90;;;;;;5035075;28;20003;-75
2022/11/08 06:57:45;;;;;;;;;;;5.30;99.90;;;;;;5025740;28;20012;-75
2022/11/08 07:00:11;;;;;;;;;;;5.30;99.90;;;;;;5034824;28;20422;-75
2022/11/08 07:02:36;;;;;;;;;;;5.40;99.90;;;;;;5034863;28;20378;-76
2022/11/08 07:05:02;;;;;;;;;;;5.40;99.90;;;;;;5039994;28;20438;-75
2022/11/08 07:07:27;;;;;;;;;;;5.30;99.90;;;;;;5032079;28;20426;-75
2022/11/08 07:09:53;;;;;;;;;;;5.40;99.90;;;;;;5037088;28;20224;-75
2022/11/08 07:12:18;;;;;;;;;;;5.40;99.90;;;;;;5031361;28;20252;-75
2022/11/08 07:14:44;;;;;;;;;;;5.10;99.90;;;;;;5029697;28;19997;-75
2022/11/08 07:17:09;;;;;;;;;;;4.90;99.90;;;;;;5044414;28;19920;-75
2022/11/08 07:19:35;;;;;;;;;;;4.80;99.90;;;;;;5034541;28;19916;-75
2022/11/08 07:22:00;;;;;;;;;;;4.90;99.90;;;;;;5027950;28;19913;-75
2022/11/08 07:24:26;;;;;;;;;;;4.90;99.90;;;;;;5030636;28;19921;-75
2022/11/08 07:26:51;;;;;;;;;;;5.00;99.90;;;;;;5030293;28;19936;-75
2022/11/08 07:29:17;;;;;;;;;;;5.00;99.90;;;;;;5030328;28;19932;-75
2022/11/08 07:31:42;;;;;;;;;;;5.20;99.90;;;;;;5032055;28;19966;-76
2022/11/08 07:34:08;;;;;;;;;;;5.60;99.90;;;;;;5024899;28;19919;-75
2022/11/08 07:36:33;;;;;;;;;;;5.60;99.90;;;;;;5027358;28;19917;-75
2022/11/08 07:38:59;;;;;;;;;;;5.70;99.90;;;;;;5047263;28;19944;-76
2022/11/08 07:41:24;;;;;;;;;;;6.00;99.90;;;;;;5030742;28;19951;-75
2022/11/08 07:43:50;;;;;;;;;;;6.10;99.90;;;;;;5027429;28;19960;-73
2022/11/08 07:46:15;;;;;;;;;;;6.10;99.90;;;;;;5037781;28;19999;-73
2022/11/08 07:48:41;;;;;;;;;;;6.00;99.90;;;;;;5033612;28;19915;-73
2022/11/08 07:51:07;;;;;;;;;;;5.90;99.90;;;;;;5035486;28;19919;-72
2022/11/08 07:53:32;;;;;;;;;;;6.00;99.90;;;;;;5033179;28;19912;-73
2022/11/08 07:55:58;;;;;;;;;;;5.90;99.90;;;;;;5011004;28;19918;-73
2022/11/08 07:58:23;;;;;;;;;;;6.00;99.90;;;;;;5034946;28;19974;-73
2022/11/08 08:00:49;;;;;;;;;;;5.80;99.90;;;;;;5026318;28;19951;-73
2022/11/08 08:03:14;;;;;;;;;;;5.80;99.90;;;;;;5027239;28;19909;-72
2022/11/08 08:05:41;;;;;;;;;;;5.90;99.90;;;;;;5024989;28;20370;-72
2022/11/08 08:08:07;;;;;;;;;;;5.80;99.90;;;;;;5024486;28;19945;-74
2022/11/08 08:10:33;;;;;;;;;;;5.80;99.90;;;;;;5032061;28;20403;-73
2022/11/08 08:12:59;;;;;;;;;;;5.70;99.90;;;;;;5030533;28;19920;-73
2022/11/08 08:15:24;;;;;;;;;;;5.70;99.90;;;;;;5029762;28;19917;-73
2022/11/08 08:17:50;;;;;;;;;;;6.00;99.90;;;;;;5029294;28;19916;-72
2022/11/08 08:20:16;;;;;;;;;;;6.30;99.90;;;;;;5035338;28;19915;-72
2022/11/08 08:22:42;;;;;;;;;;;6.40;99.90;;;;;;5024306;28;19912;-73
2022/11/08 08:25:08;;;;;;;;;;;6.50;99.90;;;;;;5029861;28;19917;-77
2022/11/08 08:27:33;;;;;;;;;;;6.60;99.90;;;;;;5021079;28;19913;-75
2022/11/08 08:29:59;;;;;;;;;;;6.50;99.90;;;;;;5028989;28;20235;-74
2022/11/08 08:32:24;;;;;;;;;;;6.30;99.90;;;;;;5029388;28;20267;-75
2022/11/08 08:34:50;;;;;;;;;;;6.30;99.90;;;;;;5030715;28;19920;-75
2022/11/08 08:37:16;;;;;;;;;;;6.40;99.90;;;;;;5036789;28;19913;-76
2022/11/08 08:39:41;;;;;;;;;;;6.40;99.90;;;;;;5036929;28;19916;-75
2022/11/08 08:42:07;;;;;;;;;;;6.60;99.90;;;;;;5027629;28;19917;-75
2022/11/08 08:44:32;;;;;;;;;;;6.60;99.90;;;;;;5039678;28;20440;-75
2022/11/08 08:46:58;;;;;;;;;;;6.70;99.90;;;;;;5028536;28;19910;-75
2022/11/08 08:49:24;;;;;;;;;;;6.70;99.90;;;;;;5036087;28;20004;-74
2022/11/08 08:51:49;;;;;;;;;;;6.80;99.90;;;;;;5029438;28;20024;-75
2022/11/08 08:54:15;;;;;;;;;;;7.50;99.90;;;;;;5025536;28;19941;-75
2022/11/08 08:56:40;;;;;;;;;;;7.40;99.90;;;;;;5028579;28;20336;-74
2022/11/08 08:59:06;;;;;;;;;;;7.20;99.90;;;;;;5021437;28;19917;-75
2022/11/08 09:01:31;;;;;;;;;;;7.30;99.90;;;;;;5027046;28;20271;-76
2022/11/08 09:03:57;;;;;;;;;;;7.20;99.90;;;;;;5032164;28;19925;-76
2022/11/08 09:06:23;;;;;;;;;;;7.30;99.90;;;;;;5031557;28;19983;-76
2022/11/08 09:08:48;;;;;;;;;;;7.70;99.90;;;;;;5037739;28;19909;-75
2022/11/08 09:11:14;;;;;;;;;;;7.50;99.90;;;;;;5033588;28;20007;-75
2022/11/08 09:13:40;;;;;;;;;;;7.50;99.90;;;;;;5033693;28;19959;-77
2022/11/08 09:16:06;;;;;;;;;;;7.40;99.90;;;;;;5035987;28;19995;-78
2022/11/08 09:18:32;;;;;;;;;;;7.40;99.90;;;;;;5032101;28;19987;-77
2022/11/08 09:20:58;;;;;;;;;;;7.60;99.90;;;;;;5036396;28;20528;-77
2022/11/08 09:23:24;;;;;;;;;;;7.80;99.90;;;;;;5023116;28;19909;-76
2022/11/08 09:25:55;;;;;;;;;;;7.80;99.90;;;;;;5024255;28;19967;-76
2022/11/08 09:28:20;;;;;;;;;;;7.90;99.90;;;;;;5024972;28;19909;-76
2022/11/08 09:30:46;;;;;;;;;;;7.80;99.90;;;;;;5039596;28;20329;-76
2022/11/08 09:33:11;;;;;;;;;;;7.80;99.90;;;;;;5041526;28;19909;-76
2022/11/08 09:35:37;;;;;;;;;;;7.70;99.90;;;;;;5018986;28;19924;-76
2022/11/08 09:38:03;;;;;;;;;;;8.00;99.90;;;;;;5035208;28;20015;-75
2022/11/08 09:40:28;;;;;;;;;;;8.30;99.90;;;;;;5030154;28;20372;-76
2022/11/08 09:43:15;;;;;;;;;;;8.30;99.90;;;;;;5036061;28;19920;-74
2022/11/08 09:45:44;;;;;;;;;;;8.20;99.90;;;;;;5034922;28;19982;-75
2022/11/08 09:48:15;;;;;;;;;;;8.20;99.90;;;;;;5034769;28;19920;-76
2022/11/08 09:50:42;;;;;;;;;;;8.70;99.90;;;;;;5035648;28;19909;-76
2022/11/08 09:53:17;;;;;;;;;;;8.60;99.90;;;;;;5045211;28;20351;-76
2022/11/08 09:55:57;;;;;;;;;;;8.70;99.90;;;;;;5037163;28;20003;-76
2022/11/08 09:58:27;;;;;;;;;;;8.60;99.90;;;;;;5024349;28;19952;-76
2022/11/08 10:00:52;;;;;;;;;;;8.50;99.90;;;;;;5042299;28;20485;-76
2022/11/08 10:03:19;;;;;;;;;;;8.50;99.90;;;;;;5028388;28;19974;-76
2022/11/08 10:05:50;;;;;;;;;;;8.50;99.90;;;;;;5034197;28;19917;-76
2022/11/08 10:08:28;;;;;;;;;;;8.60;99.90;;;;;;5032616;28;19908;-76
2022/11/08 10:11:17;;;;;;;;;;;8.70;99.90;;;;;;5033921;28;19919;-77
2022/11/08 10:14:01;;;;;;;;;;;8.70;99.90;;;;;;5024169;28;19956;-76
2022/11/08 10:16:52;;;;;;;;;;;8.70;99.90;;;;;;5031329;28;19921;-77
2022/11/08 10:19:37;;;;;;;;;;;8.70;99.90;;;;;;5018263;28;19909;-76
2022/11/08 10:22:11;;;;;;;;;;;8.80;99.90;;;;;;5037729;28;20003;-77
2022/11/08 10:24:39;;;;;;;;;;;9.10;99.90;;;;;;5041323;28;19909;-76
2022/11/08 10:27:12;;;;;;;;;;;9.10;99.90;;;;;;5038397;28;19919;-77
2022/11/08 10:29:42;;;;;;;;;;;9.20;99.90;;;;;;5030094;28;19909;-76
2022/11/08 10:32:18;;;;;;;;;;;9.30;99.90;;;;;;5046782;28;20299;-76
2022/11/08 10:34:56;;;;;;;;;;;9.20;99.90;;;;;;5047216;28;19909;-76
2022/11/08 10:37:22;;;;;;;;;;;9.20;99.90;;;;;;5048770;28;19919;-76
2022/11/08 10:40:00;;;;;;;;;;;9.30;99.90;;;;;;5046680;28;19991;-77
2022/11/08 10:42:33;;;;;;;;;;;9.40;99.90;;;;;;5043817;28;20413;-76
2022/11/08 10:44:59;;;;;;;;;;;9.50;99.90;;;;;;5031639;28;19917;-76
2022/11/08 10:47:26;;;;;;;;;;;9.50;99.90;;;;;;5043128;28;20435;-76
2022/11/08 10:49:53;;;;;;;;;;;9.60;99.90;;;;;;5043235;28;20506;-76
2022/11/08 10:52:21;;;;;;;;;;;9.60;99.90;;;;;;5045063;28;19959;-77
2022/11/08 10:54:51;;;;;;;;;;;9.70;99.90;;;;;;5045507;28;19919;-76
2022/11/08 10:57:28;;;;;;;;;;;9.90;99.90;;;;;;5047886;28;19909;-76
2022/11/08 10:59:55;;;;;;;;;;;10.00;99.80;;;;;;5047368;28;20433;-76
2022/11/08 11:02:26;;;;;;;;;;;10.10;99.80;;;;;;5047673;28;19916;-77
2022/11/08 11:04:53;;;;;;;;;;;10.10;98.90;;;;;;5047709;28;19917;-77
2022/11/08 11:07:32;;;;;;;;;;;10.10;98.70;;;;;;5050488;28;19912;-76
2022/11/08 11:10:15;;;;;;;;;;;10.20;99.00;;;;;;5046047;28;20386;-76
2022/11/08 11:12:41;;;;;;;;;;;10.20;99.00;;;;;;5049890;28;19925;-76
2022/11/08 11:15:13;;;;;;;;;;;10.30;99.30;;;;;;5046974;28;19912;-76
2022/11/08 11:17:38;;;;;;;;;;;10.50;99.50;;;;;;5030543;28;19924;-76
2022/11/08 11:20:04;;;;;;;;;;;10.60;99.10;;;;;;5031033;28;19905;-76
2022/11/08 11:22:32;;;;;;;;;;;10.70;99.30;;;;;;5028008;28;19909;-77
2022/11/08 11:25:04;;;;;;;;;;;10.90;99.50;;;;;;5046309;28;19931;-76
2022/11/08 11:27:32;;;;;;;;;;;11.10;99.20;;;;;;5059764;28;19909;-76
2022/11/08 11:30:10;;;;;;;;;;;11.10;99.10;;;;;;5038480;28;20306;-76
2022/11/08 11:32:36;;;;;;;;;;;10.90;98.80;;;;;;5026784;28;19912;-76
2022/11/08 11:35:04;;;;;;;;;;;10.90;99.00;;;;;;5033277;28;19917;-76
2022/11/08 11:37:33;;;;;;;;;;;11.00;99.00;;;;;;5032596;28;20062;-76
2022/11/08 11:40:17;;;;;;;;;;;11.00;98.60;;;;;;5030871;28;19909;-77
2022/11/08 11:42:42;;;;;;;;;;;10.90;98.90;;;;;;5035607;28;19909;-77
2022/11/08 11:45:11;;;;;;;;;;;10.80;98.80;;;;;;5039475;28;19917;-76
2022/11/08 11:47:49;;;;;;;;;;;10.70;98.90;;;;;;5032978;28;19909;-76
2022/11/08 11:50:17;;;;;;;;;;;10.50;98.70;;;;;;5025258;28;20020;-77
2022/11/08 11:52:43;;;;;;;;;;;10.40;99.10;;;;;;5038226;28;19921;-77
2022/11/08 11:55:12;;;;;;;;;;;10.40;99.40;;;;;;5046266;28;19916;-77
2022/11/08 11:57:52;;;;;;;;;;;10.30;99.20;;;;;;5028941;28;20313;-77
2022/11/08 12:00:18;;;;;;;;;;;10.40;99.40;;;;;;5032515;28;19913;-76
2022/11/08 12:03:00;;;;;;;;;;;10.30;99.30;;;;;;5030125;28;20268;-76
2022/11/08 12:05:34;;;;;;;;;;;10.30;99.20;;;;;;5034794;28;19978;-77
2022/11/08 12:08:18;;;;;;;;;;;10.30;99.00;;;;;;5032817;28;20311;-76
2022/11/08 12:10:50;;;;;;;;;;;10.30;99.30;;;;;;5027440;28;20007;-76
2022/11/08 12:13:24;;;;;;;;;;;10.30;99.10;;;;;;5044004;28;19936;-76
2022/11/08 12:15:52;;;;;;;;;;;10.40;99.30;;;;;;5034194;28;19913;-76
2022/11/08 12:18:17;;;;;;;;;;;10.40;99.20;;;;;;5032145;28;19917;-76
2022/11/08 12:20:43;;;;;;;;;;;10.30;99.10;;;;;;5032599;28;19913;-76
2022/11/08 12:23:14;;;;;;;;;;;10.40;99.40;;;;;;5024841;28;19952;-77
2022/11/08 12:25:52;;;;;;;;;;;10.40;99.00;;;;;;5025775;28;19923;-76
2022/11/08 12:28:17;;;;;;;;;;;10.40;99.10;;;;;;5030129;28;20419;-76
2022/11/08 12:30:52;;;;;;;;;;;10.40;99.00;;;;;;5032033;28;19963;-76
2022/11/08 12:33:27;;;;;;;;;;;10.50;99.20;;;;;;5024415;28;19921;-76
2022/11/08 12:35:58;;;;;;;;;;;10.60;98.80;;;;;;5024216;28;19920;-76
2022/11/08 12:38:28;;;;;;;;;;;10.60;98.90;;;;;;5024179;28;19917;-76
2022/11/08 12:41:11;;;;;;;;;;;10.70;98.90;;;;;;5037499;28;19909;-76
2022/11/08 12:43:48;;;;;;;;;;;10.80;98.40;;;;;;5026478;28;20013;-76
2022/11/08 12:46:17;;;;;;;;;;;10.80;98.20;;;;;;5031463;28;20000;-76
2022/11/08 12:48:54;;;;;;;;;;;10.90;98.40;;;;;;5024291;28;19909;-76
2022/11/08 12:51:33;;;;;;;;;;;10.90;98.10;;;;;;5035465;28;19916;-77
2022/11/08 12:54:25;;;;;;;;;;;10.90;98.40;;;;;;5034786;28;19920;-76
2022/11/08 12:56:51;;;;;;;;;;;11.00;97.90;;;;;;5015714;28;20267;-76
2022/11/08 12:59:21;;;;;;;;;;;11.00;97.70;;;;;;5033032;28;19909;-77
2022/11/08 13:01:47;;;;;;;;;;;11.20;97.90;;;;;;5031361;28;19909;-77
2022/11/08 13:04:17;;;;;;;;;;;11.20;97.50;;;;;;5036955;28;19920;-76
2022/11/08 13:06:49;;;;;;;;;;;11.30;97.40;;;;;;5031207;28;19935;-76
2022/11/08 13:09:33;;;;;;;;;;;11.40;97.60;;;;;;5036673;28;20333;-76
2022/11/08 13:12:00;;;;;;;;;;;11.70;97.80;;;;;;5037094;28;19915;-77
2022/11/08 13:14:25;;;;;;;;;;;11.70;97.30;;;;;;5029256;28;19996;-77
2022/11/08 13:17:09;;;;;;;;;;;11.70;97.50;;;;;;5038466;28;20036;-76
2022/11/08 13:19:47;;;;;;;;;;;11.80;97.50;;;;;;5023867;28;19936;-76
2022/11/08 13:22:28;;;;;;;;;;;11.80;97.40;;;;;;5029045;28;19913;-77
2022/11/08 13:24:54;;;;;;;;;;;11.90;97.40;;;;;;5029487;28;19924;-76
2022/11/08 13:27:20;;;;;;;;;;;11.90;97.10;;;;;;5036001;28;19915;-76
2022/11/08 13:29:46;;;;;;;;;;;11.90;97.10;;;;;;5035733;28;20027;-77
2022/11/08 13:32:20;;;;;;;;;;;11.80;96.90;;;;;;5043606;28;20429;-77
2022/11/08 13:35:05;;;;;;;;;;;11.90;97.20;;;;;;5048799;28;19916;-77
2022/11/08 13:37:51;;;;;;;;;;;11.90;96.90;;;;;;5028545;28;19999;-76
2022/11/08 13:40:32;;;;;;;;;;;11.70;97.30;;;;;;5046406;28;19931;-76
2022/11/08 13:43:16;;;;;;;;;;;11.80;97.00;;;;;;5042981;28;19916;-76
2022/11/08 13:45:44;;;;;;;;;;;11.90;97.10;;;;;;5035302;28;19925;-76
2022/11/08 13:48:16;;;;;;;;;;;11.90;97.20;;;;;;5035326;28;19909;-76
2022/11/08 13:50:45;;;;;;;;;;;11.90;97.30;;;;;;5035291;28;19924;-76
2022/11/08 13:53:17;;;;;;;;;;;11.90;97.40;;;;;;5033639;28;19909;-76
2022/11/08 13:55:42;;;;;;;;;;;12.00;97.40;;;;;;5047111;28;19909;-76
2022/11/08 13:58:27;;;;;;;;;;;12.10;97.30;;;;;;5039923;28;20252;-76
2022/11/08 14:00:52;;;;;;;;;;;12.10;97.00;;;;;;5045391;28;19978;-76
2022/11/08 14:03:33;;;;;;;;;;;12.10;97.40;;;;;;5040253;28;20331;-76
2022/11/08 14:06:04;;;;;;;;;;;12.10;97.10;;;;;;5036980;28;20360;-76
2022/11/08 14:08:56;;;;;;;;;;;12.20;97.40;;;;;;5039654;28;19991;-76
2022/11/08 14:11:24;;;;;;;;;;;12.20;97.50;;;;;;5036601;28;19909;-76
2022/11/08 14:14:04;;;;;;;;;;;12.30;97.50;;;;;;5028934;28;19916;-76
2022/11/08 14:16:33;;;;;;;;;;;12.20;97.70;;;;;;5029815;28;20416;-77
2022/11/08 14:19:22;;;;;;;;;;;12.10;98.20;;;;;;5027336;28;20267;-76
2022/11/08 14:21:48;;;;;;;;;;;12.10;98.30;;;;;;5034933;28;20504;-76
2022/11/08 14:24:17;;;;;;;;;;;12.10;98.00;;;;;;5038123;28;19947;-76
2022/11/08 14:26:46;;;;;;;;;;;11.90;98.10;;;;;;5028757;28;19916;-76
2022/11/08 14:29:16;;;;;;;;;;;11.80;98.30;;;;;;5045645;28;19916;-76
2022/11/08 14:31:41;;;;;;;;;;;11.70;98.50;;;;;;5035397;28;19909;-76
2022/11/08 14:34:25;;;;;;;;;;;11.60;98.50;;;;;;5036175;28;19909;-77
2022/11/08 14:36:51;;;;;;;;;;;11.60;98.50;;;;;;5043640;28;19954;-76
2022/11/08 14:39:17;;;;;;;;;;;11.70;98.60;;;;;;5030717;28;20287;-76
2022/11/08 14:41:44;;;;;;;;;;;11.70;98.50;;;;;;5036898;28;19908;-76
2022/11/08 14:44:12;;;;;;;;;;;11.60;98.50;;;;;;5046658;28;20408;-77
2022/11/08 14:46:38;;;;;;;;;;;11.60;98.40;;;;;;5041904;28;20371;-76
2022/11/08 14:49:08;;;;;;;;;;;11.50;98.10;;;;;;5034442;28;20164;-76
2022/11/08 14:51:33;;;;;;;;;;;11.50;98.40;;;;;;5032757;28;19962;-76
2022/11/08 14:53:59;;;;;;;;;;;11.50;98.50;;;;;;5047102;28;20027;-76
2022/11/08 14:56:25;;;;;;;;;;;11.40;98.40;;;;;;5041025;28;19909;-77